createdAt,value
2022-10-10T00:01:29.257Z,2.20
2022-10-10T00:03:56.775Z,2.60
2022-10-10T00:06:25.164Z,2.27
2022-10-10T00:08:53.589Z,3.00
2022-10-10T00:11:23.777Z,2.03
2022-10-10T00:13:52.479Z,2.17
2022-10-10T00:16:20.864Z,2.63
2022-10-10T00:18:48.578Z,2.70
2022-10-10T00:21:16.335Z,2.40
2022-10-10T00:23:43.438Z,2.57
2022-10-10T00:26:14.949Z,2.43
2022-10-10T00:28:45.893Z,2.40
2022-10-10T00:31:12.899Z,2.37
2022-10-10T00:33:39.955Z,2.73
2022-10-10T00:36:07.526Z,2.90
2022-10-10T00:38:35.469Z,2.77
2022-10-10T00:41:02.851Z,2.70
2022-10-10T00:43:31.097Z,2.50
2022-10-10T00:45:58.275Z,2.77
2022-10-10T00:48:30.037Z,2.40
2022-10-10T00:51:19.001Z,2.20
2022-10-10T00:53:58.928Z,2.70
2022-10-10T00:56:33.778Z,2.83
2022-10-10T00:59:08.772Z,2.67
2022-10-10T01:01:35.789Z,2.57
2022-10-10T01:04:03.893Z,2.63
2022-10-10T01:06:32.807Z,2.40
2022-10-10T01:09:07.991Z,2.57
2022-10-10T01:11:55.570Z,2.80
2022-10-10T01:14:42.129Z,2.37
2022-10-10T01:17:26.246Z,2.53
2022-10-10T01:20:08.536Z,2.37
2022-10-10T01:22:41.717Z,2.50
2022-10-10T01:25:56.944Z,2.40
2022-10-10T01:28:39.823Z,2.10
2022-10-10T01:31:11.023Z,2.57
2022-10-10T01:33:43.627Z,2.17
2022-10-10T01:36:22.965Z,2.47
2022-10-10T01:38:54.036Z,2.33
2022-10-10T01:41:39.428Z,2.57
2022-10-10T01:44:06.557Z,2.40
2022-10-10T01:46:33.856Z,2.77
2022-10-10T01:49:02.749Z,2.90
2022-10-10T01:51:44.899Z,2.67
2022-10-10T01:54:20.988Z,2.97
2022-10-10T01:57:05.387Z,3.10
2022-10-10T02:00:00.748Z,2.90
2022-10-10T02:02:35.905Z,2.47
2022-10-10T02:05:32.995Z,2.90
2022-10-10T02:08:12.415Z,2.77
2022-10-10T02:10:51.279Z,2.70
2022-10-10T02:13:18.815Z,2.90
2022-10-10T02:15:51.274Z,2.97
2022-10-10T02:18:22.482Z,2.67
2022-10-10T02:20:51.785Z,2.73
2022-10-10T02:23:22.037Z,2.80
2022-10-10T02:25:56.214Z,2.87
2022-10-10T02:28:33.777Z,2.70
2022-10-10T02:31:07.270Z,2.90
2022-10-10T02:33:56.668Z,2.93
2022-10-10T02:36:25.251Z,2.60
2022-10-10T02:38:54.237Z,2.90
2022-10-10T02:41:23.446Z,3.00
2022-10-10T02:43:52.257Z,3.00
2022-10-10T02:46:20.176Z,2.60
2022-10-10T02:48:47.448Z,3.00
2022-10-10T02:51:16.547Z,2.67
2022-10-10T02:53:43.614Z,3.07
2022-10-10T02:56:11.107Z,3.10
2022-10-10T02:58:38.496Z,2.83
2022-10-10T03:01:05.877Z,2.73
2022-10-10T03:03:34.133Z,2.97
2022-10-10T03:06:04.778Z,2.97
2022-10-10T03:08:32.206Z,3.10
2022-10-10T03:11:02.707Z,3.20
2022-10-10T03:13:30.831Z,2.90
2022-10-10T03:15:58.087Z,2.90
2022-10-10T03:18:25.269Z,2.93
2022-10-10T03:20:56.647Z,3.03
2022-10-10T03:23:25.377Z,3.03
2022-10-10T03:25:52.794Z,3.20
2022-10-10T03:28:20.929Z,2.63
2022-10-10T03:30:48.495Z,3.50
2022-10-10T03:33:16.124Z,3.40
2022-10-10T03:35:43.216Z,3.00
2022-10-10T03:38:11.610Z,3.47
2022-10-10T03:40:43.656Z,3.20
2022-10-10T03:43:12.667Z,2.83
2022-10-10T03:45:43.052Z,3.20
2022-10-10T03:48:10.879Z,3.50
2022-10-10T03:50:38.146Z,3.30
2022-10-10T03:53:05.962Z,3.40
2022-10-10T03:55:32.979Z,3.40
2022-10-10T03:58:01.056Z,3.43
2022-10-10T04:00:28.006Z,3.17
2022-10-10T04:02:55.156Z,3.60
2022-10-10T04:05:22.107Z,3.20
2022-10-10T04:07:49.473Z,3.57
2022-10-10T04:10:16.792Z,3.07
2022-10-10T04:12:44.208Z,3.37
2022-10-10T04:15:11.274Z,3.20
2022-10-10T04:17:38.480Z,2.97
2022-10-10T04:20:05.878Z,3.57
2022-10-10T04:22:32.943Z,3.40
2022-10-10T04:24:59.876Z,3.10
2022-10-10T04:27:26.991Z,3.40
2022-10-10T04:29:54.251Z,3.43
2022-10-10T04:32:21.397Z,3.57
2022-10-10T04:34:48.532Z,3.10
2022-10-10T04:37:16.159Z,3.37
2022-10-10T04:39:43.108Z,3.43
2022-10-10T04:42:10.218Z,3.20
2022-10-10T04:44:37.577Z,3.20
2022-10-10T04:47:04.719Z,3.73
2022-10-10T04:49:31.627Z,3.53
2022-10-10T04:51:58.786Z,3.53
2022-10-10T04:54:25.701Z,3.60
2022-10-10T04:56:52.986Z,3.20
2022-10-10T04:59:20.217Z,3.57
2022-10-10T05:01:47.315Z,3.37
2022-10-10T05:04:14.759Z,3.37
2022-10-10T05:06:41.914Z,3.50
2022-10-10T05:09:08.888Z,3.07
2022-10-10T05:11:36.210Z,3.60
2022-10-10T05:14:04.519Z,3.30
2022-10-10T05:16:31.704Z,3.57
2022-10-10T05:18:58.671Z,3.77
2022-10-10T05:21:25.831Z,3.40
2022-10-10T05:23:52.792Z,3.40
2022-10-10T05:26:21.018Z,3.53
2022-10-10T05:28:49.004Z,3.27
2022-10-10T05:31:16.095Z,3.87
2022-10-10T05:33:43.061Z,3.37
2022-10-10T05:36:13.926Z,3.40
2022-10-10T05:38:42.593Z,3.90
2022-10-10T05:41:10.143Z,3.80
2022-10-10T05:43:37.511Z,3.20
2022-10-10T05:46:05.255Z,3.20
2022-10-10T05:48:32.486Z,3.50
2022-10-10T05:51:00.828Z,3.77
2022-10-10T05:53:30.320Z,3.87
2022-10-10T05:55:57.827Z,3.80
2022-10-10T05:58:26.687Z,3.90
2022-10-10T06:00:53.984Z,3.53
2022-10-10T06:03:23.589Z,4.17
2022-10-10T06:05:51.919Z,3.77
2022-10-10T06:08:19.094Z,3.50
2022-10-10T06:10:46.593Z,3.67
2022-10-10T06:13:20.299Z,3.60
2022-10-10T06:15:53.225Z,3.33
2022-10-10T06:18:20.399Z,4.00
2022-10-10T06:20:47.551Z,3.73
2022-10-10T06:23:14.812Z,3.63
2022-10-10T06:25:42.301Z,3.53
2022-10-10T06:28:11.376Z,3.70
2022-10-10T06:30:48.687Z,3.20
2022-10-10T06:33:18.752Z,3.53
2022-10-10T06:35:47.995Z,3.63
2022-10-10T06:38:17.257Z,3.63
2022-10-10T06:40:46.321Z,3.47
2022-10-10T06:43:16.312Z,3.67
2022-10-10T06:45:50.129Z,3.40
2022-10-10T06:48:17.228Z,3.10
2022-10-10T06:50:44.206Z,3.37
2022-10-10T06:53:11.255Z,3.60
2022-10-10T06:55:38.208Z,3.20
2022-10-10T06:58:05.865Z,3.40
2022-10-10T07:00:32.863Z,3.63
2022-10-10T07:02:59.980Z,3.73
2022-10-10T07:05:26.946Z,3.47
2022-10-10T07:07:54.056Z,3.47
2022-10-10T07:10:21.113Z,3.83
2022-10-10T07:12:48.506Z,3.47
2022-10-10T07:15:15.753Z,3.43
2022-10-10T07:17:44.201Z,3.73
2022-10-10T07:20:11.590Z,3.50
2022-10-10T07:22:38.697Z,3.37
2022-10-10T07:25:06.038Z,3.83
2022-10-10T07:27:33.035Z,3.63
2022-10-10T07:29:59.983Z,3.80
2022-10-10T07:32:27.015Z,3.30
2022-10-10T07:34:54.562Z,3.63
2022-10-10T07:37:21.815Z,3.37
2022-10-10T07:39:49.006Z,3.60
2022-10-10T07:42:16.155Z,4.17
2022-10-10T07:44:43.652Z,3.63
2022-10-10T07:47:11.029Z,3.93
2022-10-10T07:49:38.739Z,3.87
2022-10-10T07:52:05.911Z,4.10
2022-10-10T07:54:33.486Z,4.60
2022-10-10T07:57:00.877Z,4.73
2022-10-10T07:59:28.466Z,4.53
2022-10-10T08:01:55.667Z,4.43
2022-10-10T08:04:23.850Z,4.00
2022-10-10T08:06:51.275Z,4.37
2022-10-10T08:09:18.559Z,4.17
2022-10-10T08:11:45.692Z,4.50
2022-10-10T08:14:13.264Z,4.07
2022-10-10T08:16:40.484Z,4.30
2022-10-10T08:19:07.897Z,4.43
2022-10-10T08:21:36.358Z,4.87
2022-10-10T08:24:06.584Z,3.83
2022-10-10T08:26:33.707Z,4.13
2022-10-10T08:29:01.427Z,4.30
2022-10-10T08:31:29.175Z,4.37
2022-10-10T08:33:56.954Z,4.40
2022-10-10T08:36:24.964Z,4.30
2022-10-10T08:39:00.161Z,3.97
2022-10-10T08:41:38.525Z,4.30
2022-10-10T08:44:21.513Z,4.17
2022-10-10T08:47:02.275Z,4.00
2022-10-10T08:49:55.842Z,4.07
2022-10-10T08:52:25.767Z,5.20
2022-10-10T08:54:58.287Z,4.50
2022-10-10T08:57:55.684Z,4.50
2022-10-10T09:00:25.382Z,4.87
2022-10-10T09:02:59.290Z,5.30
2022-10-10T09:06:01.686Z,5.63
2022-10-10T09:08:58.756Z,5.23
2022-10-10T09:11:40.790Z,5.37
2022-10-10T09:14:22.838Z,5.23
2022-10-10T09:17:05.306Z,5.37
2022-10-10T09:19:53.497Z,5.53
2022-10-10T09:22:25.776Z,4.77
2022-10-10T09:25:04.586Z,5.23
2022-10-10T09:27:38.436Z,4.67
2022-10-10T09:30:19.999Z,5.40
2022-10-10T09:33:01.694Z,5.30
2022-10-10T09:35:31.667Z,5.40
2022-10-10T09:38:39.667Z,5.27
2022-10-10T09:41:15.618Z,4.90
2022-10-10T09:43:42.929Z,5.33
2022-10-10T09:46:11.033Z,5.70
2022-10-10T09:48:40.786Z,5.60
2022-10-10T09:51:14.337Z,5.63
2022-10-10T09:53:42.426Z,5.47
2022-10-10T09:56:18.858Z,5.47
2022-10-10T09:58:48.832Z,5.17
2022-10-10T10:01:24.270Z,5.30
2022-10-10T10:04:28.678Z,5.20
2022-10-10T10:07:06.557Z,4.97
2022-10-10T10:09:34.216Z,4.97
2022-10-10T10:12:01.450Z,4.43
2022-10-10T10:14:32.682Z,4.93
2022-10-10T10:17:15.970Z,4.47
2022-10-10T10:19:47.724Z,4.63
2022-10-10T10:22:31.576Z,4.90
2022-10-10T10:25:00.613Z,4.90
2022-10-10T10:27:29.396Z,4.63
2022-10-10T10:29:58.819Z,4.67
2022-10-10T10:32:59.654Z,4.50
2022-10-10T10:35:41.885Z,4.60
2022-10-10T10:38:20.360Z,4.37
2022-10-10T10:41:38.428Z,4.57
2022-10-10T10:44:46.826Z,4.20
2022-10-10T10:47:16.795Z,4.30
2022-10-10T10:49:52.187Z,4.30
2022-10-10T10:52:53.147Z,3.97
2022-10-10T10:55:39.070Z,3.57
2022-10-10T11:01:57.725Z,5.40
2022-10-10T11:05:22.472Z,3.00
2022-10-10T11:08:12.461Z,3.50
2022-10-10T11:10:59.161Z,3.30
2022-10-10T11:13:59.515Z,3.73
2022-10-10T11:16:48.300Z,3.17
2022-10-10T11:19:41.914Z,3.23
2022-10-10T11:22:13.982Z,2.87
2022-10-10T11:25:08.739Z,3.20
2022-10-10T11:27:43.180Z,3.23
2022-10-10T11:30:17.511Z,2.80
2022-10-10T11:33:02.609Z,2.53
2022-10-10T11:35:53.667Z,2.43
2022-10-10T11:38:39.346Z,2.77
2022-10-10T11:41:09.937Z,2.50
2022-10-10T11:44:16.662Z,2.70
2022-10-10T11:47:13.334Z,2.60
2022-10-10T11:50:07.676Z,2.33
2022-10-10T11:52:37.428Z,2.50
2022-10-10T11:55:13.055Z,2.40
2022-10-10T11:58:06.606Z,2.63
2022-10-10T12:00:39.543Z,2.20
2022-10-10T12:03:08.907Z,2.50
2022-10-10T12:05:40.517Z,2.20
2022-10-10T12:08:18.339Z,2.00
2022-10-10T12:11:19.595Z,2.17
2022-10-10T12:13:59.247Z,1.90
2022-10-10T12:16:30.733Z,2.10
2022-10-10T12:19:05.701Z,1.80
2022-10-10T12:22:13.928Z,2.10
2022-10-10T12:25:20.827Z,2.07
2022-10-10T12:28:14.530Z,2.30
2022-10-10T12:30:58.519Z,2.07
2022-10-10T12:33:28.944Z,2.47
2022-10-10T12:35:56.066Z,1.90
2022-10-10T12:38:28.120Z,2.03
2022-10-10T12:40:58.190Z,2.50
2022-10-10T12:43:50.598Z,2.40
2022-10-10T12:46:24.765Z,1.97
2022-10-10T12:49:22.997Z,2.00
2022-10-10T12:52:20.727Z,1.90
2022-10-10T12:54:49.424Z,1.93
2022-10-10T12:57:30.808Z,1.83
2022-10-10T13:00:04.562Z,1.80
2022-10-10T13:02:31.735Z,2.00
2022-10-10T13:05:02.764Z,1.67
2022-10-10T13:07:30.635Z,1.50
2022-10-10T13:10:19.288Z,1.83
2022-10-10T13:12:46.329Z,1.93
2022-10-10T13:15:20.797Z,1.53
2022-10-10T13:17:47.927Z,1.77
2022-10-10T13:20:37.150Z,1.90
2022-10-10T13:23:11.298Z,1.73
2022-10-10T13:25:39.885Z,1.70
2022-10-10T13:28:19.033Z,2.20
2022-10-10T13:30:46.966Z,2.43
2022-10-10T13:33:20.787Z,1.63
2022-10-10T13:35:49.222Z,1.90
2022-10-10T13:38:19.061Z,2.27
2022-10-10T13:40:46.840Z,2.10
2022-10-10T13:43:17.500Z,2.57
2022-10-10T13:45:55.909Z,1.97
2022-10-10T13:48:38.067Z,2.30
2022-10-10T13:51:11.442Z,2.23
2022-10-10T13:53:54.695Z,2.10
2022-10-10T13:56:31.715Z,2.20
2022-10-10T13:59:01.486Z,2.50
2022-10-10T14:01:34.744Z,2.17
2022-10-10T14:04:04.247Z,2.40
2022-10-10T14:06:32.593Z,2.60
2022-10-10T14:09:13.946Z,2.10
2022-10-10T14:11:43.324Z,2.00
2022-10-10T14:14:26.389Z,2.43
2022-10-10T14:17:05.014Z,1.93
2022-10-10T14:19:33.430Z,2.00
2022-10-10T14:22:00.624Z,2.07
2022-10-10T14:24:27.863Z,2.13
2022-10-10T14:26:55.194Z,2.23
2022-10-10T14:29:23.396Z,2.20
2022-10-10T14:31:53.095Z,2.13
2022-10-10T14:34:27.855Z,1.93
2022-10-10T14:36:55.124Z,2.40
2022-10-10T14:39:22.480Z,2.30
2022-10-10T14:41:55.322Z,2.30
2022-10-10T14:44:22.765Z,2.20
2022-10-10T14:46:49.931Z,2.30
2022-10-10T14:49:21.368Z,2.63
2022-10-10T14:51:48.892Z,2.60
2022-10-10T14:54:16.138Z,2.00
2022-10-10T14:57:08.653Z,2.10
2022-10-10T14:59:47.627Z,2.50
2022-10-10T15:02:19.515Z,1.90
2022-10-10T15:04:47.036Z,1.73
2022-10-10T15:07:15.439Z,2.07
2022-10-10T15:10:42.444Z,2.27
2022-10-10T15:12:38.920Z,2.10
2022-10-10T15:15:07.429Z,2.23
2022-10-10T15:17:35.025Z,2.20
2022-10-10T15:20:04.204Z,2.17
2022-10-10T15:22:31.881Z,2.37
2022-10-10T15:24:59.362Z,2.30
2022-10-10T15:27:28.264Z,2.90
2022-10-10T15:29:56.358Z,2.07
2022-10-10T15:32:23.535Z,2.27
2022-10-10T15:34:51.718Z,2.03
2022-10-10T15:37:19.914Z,2.20
2022-10-10T15:39:48.038Z,2.10
2022-10-10T15:42:22.166Z,2.40
2022-10-10T15:44:53.686Z,2.47
2022-10-10T15:47:21.811Z,2.50
2022-10-10T15:49:49.427Z,2.60
2022-10-10T15:52:19.193Z,2.23
2022-10-10T15:54:48.980Z,2.23
2022-10-10T15:57:18.777Z,2.27
2022-10-10T15:59:47.918Z,2.57
2022-10-10T16:02:15.327Z,2.10
2022-10-10T16:04:44.260Z,2.37
2022-10-10T16:07:25.832Z,2.37
2022-10-10T16:09:55.848Z,2.20
2022-10-10T16:12:23.027Z,2.70
2022-10-10T16:14:51.912Z,2.50
2022-10-10T16:17:23.093Z,2.50
2022-10-10T16:19:50.989Z,2.57
2022-10-10T16:22:18.220Z,2.70
2022-10-10T16:24:58.224Z,3.00
2022-10-10T16:27:32.399Z,2.67
2022-10-10T16:29:59.928Z,2.67
2022-10-10T16:32:27.105Z,3.10
2022-10-10T16:34:54.409Z,2.90
2022-10-10T16:37:21.591Z,2.80
2022-10-10T16:39:48.823Z,2.63
2022-10-10T16:42:16.338Z,3.37
2022-10-10T16:44:50.600Z,2.70
2022-10-10T16:47:17.896Z,3.30
2022-10-10T16:49:45.066Z,3.00
2022-10-10T16:52:12.373Z,3.00
2022-10-10T16:54:39.598Z,2.70
2022-10-10T16:57:06.823Z,2.90
2022-10-10T16:59:35.017Z,2.77
2022-10-10T17:02:02.135Z,3.10
2022-10-10T17:04:29.416Z,2.73
2022-10-10T17:06:56.501Z,3.30
2022-10-10T17:09:24.204Z,2.93
2022-10-10T17:11:51.742Z,2.90
2022-10-10T17:14:19.576Z,2.93
2022-10-10T17:17:11.049Z,3.07
2022-10-10T17:19:34.082Z,3.23
2022-10-10T17:22:01.244Z,3.07
2022-10-10T17:24:28.494Z,3.43
2022-10-10T17:26:55.752Z,3.23
2022-10-10T17:29:24.988Z,3.03
2022-10-10T17:31:52.132Z,2.90
2022-10-10T17:34:19.719Z,3.27
2022-10-10T17:36:47.247Z,3.23
2022-10-10T17:39:14.413Z,3.13
2022-10-10T17:41:41.787Z,3.23
2022-10-10T17:44:10.965Z,3.23
2022-10-10T17:46:38.709Z,3.20
2022-10-10T17:49:07.658Z,3.50
2022-10-10T17:51:36.267Z,3.17
2022-10-10T17:54:04.637Z,3.10
2022-10-10T17:56:32.325Z,2.83
2022-10-10T17:59:01.867Z,3.43
2022-10-10T18:01:31.110Z,3.80
2022-10-10T18:03:59.193Z,3.30
2022-10-10T18:06:26.631Z,3.33
2022-10-10T18:08:54.326Z,3.20
2022-10-10T18:11:24.697Z,3.53
2022-10-10T18:13:52.593Z,3.03
2022-10-10T18:16:22.252Z,3.20
2022-10-10T18:18:52.076Z,3.37
2022-10-10T18:21:21.986Z,3.07
2022-10-10T18:23:52.546Z,3.37
2022-10-10T18:26:22.558Z,3.40
2022-10-10T18:28:52.807Z,3.33
2022-10-10T18:31:28.179Z,3.40
2022-10-10T18:33:56.118Z,3.67
2022-10-10T18:36:25.851Z,3.70
2022-10-10T18:38:53.805Z,3.40
2022-10-10T18:41:25.395Z,3.97
2022-10-10T18:43:52.864Z,3.20
2022-10-10T18:46:22.235Z,3.57
2022-10-10T18:48:54.218Z,3.23
2022-10-10T18:51:25.228Z,3.43
2022-10-10T18:53:56.264Z,3.27
2022-10-10T18:56:26.594Z,3.60
2022-10-10T18:58:57.932Z,3.20
2022-10-10T19:01:30.608Z,3.33
2022-10-10T19:03:57.939Z,3.50
2022-10-10T19:06:26.351Z,3.83
2022-10-10T19:08:56.344Z,3.50
2022-10-10T19:11:32.953Z,3.40
2022-10-10T19:14:05.022Z,3.27
2022-10-10T19:16:32.829Z,3.50
2022-10-10T19:19:01.524Z,3.70
2022-10-10T19:21:31.877Z,3.23
2022-10-10T19:24:00.245Z,3.80
2022-10-10T19:26:28.044Z,3.43
2022-10-10T19:28:55.531Z,3.33
2022-10-10T19:31:27.150Z,2.53
2022-10-10T19:33:54.356Z,2.70
2022-10-10T19:36:21.593Z,3.03
2022-10-10T19:38:48.783Z,2.60
2022-10-10T19:41:16.503Z,3.10
2022-10-10T19:43:47.758Z,2.80
2022-10-10T19:46:17.758Z,2.87
2022-10-10T19:48:45.082Z,2.40
2022-10-10T19:51:16.150Z,2.83
2022-10-10T19:53:44.086Z,3.33
2022-10-10T19:56:16.785Z,2.70
2022-10-10T19:58:44.028Z,2.87
2022-10-10T20:01:13.274Z,2.97
2022-10-10T20:03:41.274Z,2.70
2022-10-10T20:06:08.498Z,3.10
2022-10-10T20:08:35.639Z,2.70
2022-10-10T20:11:05.499Z,3.30
2022-10-10T20:13:34.936Z,3.00
2022-10-10T20:16:05.768Z,2.73
2022-10-10T20:18:35.498Z,3.43
2022-10-10T20:21:14.214Z,3.27
2022-10-10T20:23:44.825Z,3.17
2022-10-10T20:26:18.767Z,3.07
2022-10-10T20:28:46.533Z,3.00
2022-10-10T20:31:18.374Z,3.30
2022-10-10T20:33:48.519Z,2.90
2022-10-10T20:36:16.671Z,2.73
2022-10-10T20:38:44.047Z,3.37
2022-10-10T20:41:11.908Z,3.47
2022-10-10T20:43:43.260Z,3.30
2022-10-10T20:46:12.743Z,2.60
2022-10-10T20:48:40.522Z,2.80
2022-10-10T20:51:10.809Z,3.00
2022-10-10T20:53:44.224Z,2.60
2022-10-10T20:56:12.875Z,2.90
2022-10-10T20:58:41.109Z,2.77
2022-10-10T21:01:16.292Z,2.43
2022-10-10T21:03:45.294Z,2.50
2022-10-10T21:06:19.320Z,2.60
2022-10-10T21:08:46.710Z,2.57
2022-10-10T21:11:18.124Z,2.37
2022-10-10T21:13:56.798Z,2.53
2022-10-10T21:16:26.332Z,2.80
2022-10-10T21:18:57.862Z,2.40
2022-10-10T21:21:27.776Z,2.23
2022-10-10T21:23:56.479Z,2.60
2022-10-10T21:26:26.892Z,2.40
2022-10-10T21:28:56.307Z,3.00
2022-10-10T21:31:26.470Z,2.40
2022-10-10T21:33:54.412Z,2.33
2022-10-10T21:36:22.624Z,2.63
2022-10-10T21:38:49.805Z,3.20
2022-10-10T21:41:22.158Z,2.87
2022-10-10T21:43:59.907Z,2.47
2022-10-10T21:46:34.807Z,2.67
2022-10-10T21:49:10.187Z,2.37
2022-10-10T21:51:39.547Z,2.80
2022-10-10T21:54:08.819Z,2.80
2022-10-10T21:56:36.591Z,2.70
2022-10-10T21:59:05.312Z,2.63
2022-10-10T22:01:37.677Z,2.83
2022-10-10T22:04:06.150Z,2.67
2022-10-10T22:06:33.776Z,2.80
2022-10-10T22:09:06.912Z,2.67
2022-10-10T22:11:35.074Z,3.03
2022-10-10T22:14:07.062Z,2.97
2022-10-10T22:16:34.846Z,3.07
2022-10-10T22:19:02.469Z,3.23
2022-10-10T22:21:34.960Z,3.03
2022-10-10T22:24:05.475Z,3.50
2022-10-10T22:26:34.078Z,3.70
2022-10-10T22:29:01.950Z,3.57
2022-10-10T22:31:29.537Z,3.77
2022-10-10T22:33:56.998Z,4.63
2022-10-10T22:36:24.099Z,5.10
2022-10-10T22:38:51.172Z,4.93
2022-10-10T22:41:18.375Z,5.13
2022-10-10T22:43:46.363Z,4.77
2022-10-10T22:46:13.466Z,4.20
2022-10-10T22:48:40.637Z,4.70
2022-10-10T22:51:18.353Z,4.57
2022-10-10T22:53:47.472Z,4.70
2022-10-10T22:56:19.491Z,4.30
2022-10-10T22:58:48.771Z,3.70
2022-10-10T23:01:20.217Z,4.63
2022-10-10T23:03:47.546Z,4.40
2022-10-10T23:06:15.292Z,4.00
2022-10-10T23:08:42.353Z,4.03
2022-10-10T23:11:09.371Z,4.33
2022-10-10T23:13:37.592Z,4.20
2022-10-10T23:16:05.082Z,5.27
2022-10-10T23:18:32.625Z,5.30
2022-10-10T23:21:00.071Z,5.57
2022-10-10T23:23:27.605Z,5.70
2022-10-10T23:25:54.963Z,5.90
2022-10-10T23:28:23.159Z,6.43
2022-10-10T23:30:50.118Z,6.27
2022-10-10T23:33:17.789Z,7.97
2022-10-10T23:35:44.735Z,7.90
2022-10-10T23:38:11.863Z,8.23
2022-10-10T23:40:41.966Z,8.87
2022-10-10T23:43:10.849Z,8.97
2022-10-10T23:45:40.522Z,8.47
2022-10-10T23:48:07.689Z,9.10
2022-10-10T23:50:34.748Z,9.50
2022-10-10T23:53:01.999Z,9.17
2022-10-10T23:55:28.947Z,9.10
2022-10-10T23:57:58.567Z,9.63
